| time (UTC) | temp F | wind direction | speed knots | gust knots | rain 1hr in | rain 24hr in | rain mn in | humidity % | barometer mb |
| 20260510094535 | 40 | 299 | 1.7 | 6.1 | 0.00 | 0.09 | 0.00 | 71 | 1011.3 |
| 20260510093013 | 40 | 264 | 0.9 | 4.3 | 0.00 | 0.09 | 0.00 | 71 | 1011.1 |
| 20260510091517 | 40 | 305 | 0.9 | 4.3 | 0.00 | 0.09 | 0.00 | 71 | 1010.8 |
| 20260510090008 | 40 | 264 | 0.9 | 5.2 | 0.00 | 0.09 | 0.00 | 71 | 1010.4 |
| 20260510084502 | 41 | 320 | 0.9 | 7.8 | 0.00 | 0.09 | 0.00 | 70 | 1010.3 |
| 20260510083101 | 41 | 312 | 0.9 | 9.6 | 0.00 | 0.09 | 0.00 | 69 | 1010.2 |
| 20260510081557 | 42 | 295 | 0.9 | 5.2 | 0.00 | 0.09 | 0.00 | 68 | 1010.2 |
| 20260510080054 | 42 | 270 | 1.7 | 7.8 | 0.00 | 0.09 | 0.00 | 67 | 1010.0 |
| 20260510074550 | 42 | 298 | 0.9 | 8.7 | 0.00 | 0.09 | 0.00 | 66 | 1009.9 |
| 20260510073048 | 43 | 301 | 0.9 | 6.1 | 0.00 | 0.09 | 0.00 | 66 | 1009.7 |
| 20260510071550 | 43 | 349 | 0.9 | 10.4 | 0.00 | 0.09 | 0.00 | 65 | 1009.7 |
| 20260510070042 | 44 | 274 | 0.9 | 9.6 | 0.00 | 0.09 | 0.00 | 64 | 1009.6 |
| 20260510064537 | 45 | 279 | 0.9 | 8.7 | 0.00 | 0.09 | 0.00 | 61 | 1009.3 |
| 20260510063033 | 46 | 298 | 0.9 | 10.4 | 0.00 | 0.09 | 0.00 | 60 | 1009.2 |
| 20260510061531 | 47 | 317 | 0.9 | 4.3 | 0.00 | 0.09 | 0.00 | 61 | 1009.1 |
| 20260510060027 | 47 | 252 | 0.9 | 6.1 | 0.00 | 0.09 | 0.00 | 62 | 1009.2 |
| 20260510054524 | 47 | 271 | 0.9 | 3.5 | 0.00 | 0.09 | 0.00 | 61 | 1008.8 |
| 20260510053044 | 48 | 288 | 0.0 | 3.5 | 0.00 | 0.09 | 0.00 | 61 | 1008.5 |
| 20260510051519 | 48 | 273 | 0.9 | 7.0 | 0.00 | 0.09 | 0.00 | 60 | 1008.4 |
| 20260510050020 | 49 | 272 | 0.9 | 3.5 | 0.00 | 0.09 | 0.00 | 62 | 1008.3 |
| 20260510044513 | 49 | 263 | 1.7 | 7.8 | 0.00 | 0.09 | 0.00 | 63 | 1008.4 |
| 20260510043012 | 49 | 292 | 0.9 | 3.5 | 0.00 | 0.09 | 0.00 | 63 | 1007.8 |
| 20260510041509 | 49 | 258 | 0.9 | 6.1 | 0.00 | 0.09 | 0.00 | 65 | 1007.8 |
| 20260510040006 | 49 | 288 | 0.9 | 5.2 | 0.00 | 0.09 | 0.09 | 64 | 1007.7 |
| 20260510034503 | 49 | 294 | 0.0 | 3.5 | 0.00 | 0.09 | 0.09 | 64 | 1007.4 |
| 20260510033002 | 49 | 348 | 0.9 | 4.3 | 0.00 | 0.09 | 0.09 | 66 | 1007.2 |
| 20260510031505 | 50 | 303 | 0.9 | 7.8 | 0.00 | 0.09 | 0.09 | 68 | 1007.1 |
| 20260510030001 | 50 | 311 | 0.9 | 4.3 | 0.00 | 0.09 | 0.09 | 70 | 1006.6 |
| 20260510024609 | 51 | 316 | 0.9 | 4.3 | 0.00 | 0.09 | 0.09 | 71 | 1006.7 |
| 20260510023100 | 51 | 325 | 0.9 | 3.5 | 0.00 | 0.09 | 0.09 | 72 | 1006.7 |
| 20260510021600 | 52 | 287 | 0.9 | 7.0 | 0.00 | 0.09 | 0.09 | 77 | 1006.7 |
| 20260510020059 | 52 | 321 | 2.6 | 8.7 | 0.00 | 0.09 | 0.09 | 87 | 1006.3 |
| 20260510014558 | 52 | 274 | 2.6 | 7.0 | 0.00 | 0.09 | 0.09 | 89 | 1005.8 |
| 20260510013058 | 52 | 238 | 0.9 | 7.0 | 0.00 | 0.09 | 0.09 | 89 | 1005.4 |
| 20260510011557 | 52 | 223 | 0.9 | 3.5 | 0.00 | 0.09 | 0.09 | 89 | 1004.8 |
| 20260510010056 | 52 | 222 | 0.0 | 3.5 | 0.00 | 0.09 | 0.09 | 88 | 1004.4 |
| 20260510004600 | 52 | 215 | 0.9 | 3.5 | 0.03 | 0.09 | 0.09 | 87 | 1004.2 |
| 20260510003057 | 53 | 235 | 0.9 | 4.3 | 0.03 | 0.09 | 0.09 | 86 | 1004.0 |
| 20260510001555 | 54 | 236 | 0.9 | 3.5 | 0.04 | 0.09 | 0.09 | 85 | 1003.8 |
| 20260510000100 | 55 | 227 | 0.9 | 4.3 | 0.04 | 0.09 | 0.09 | 83 | 1003.8 |
| 20260509234555 | 55 | 273 | 0.9 | 7.8 | 0.01 | 0.06 | 0.06 | 81 | 1003.4 |
| 20260509233057 | 56 | 229 | 1.7 | 7.0 | 0.01 | 0.06 | 0.06 | 80 | 1003.0 |
| 20260509231553 | 57 | 254 | 1.7 | 7.8 | 0.00 | 0.05 | 0.05 | 79 | 1002.8 |
| 20260509230055 | 57 | 219 | 3.5 | 11.3 | 0.00 | 0.05 | 0.05 | 78 | 1002.5 |
| 20260509224553 | 58 | 184 | 2.6 | 9.6 | 0.00 | 0.05 | 0.05 | 78 | 1002.4 |
| 20260509223054 | 57 | 212 | 2.6 | 13.0 | 0.02 | 0.05 | 0.05 | 80 | 1002.5 |
| 20260509221551 | 56 | 196 | 3.5 | 15.6 | 0.05 | 0.05 | 0.05 | 84 | 1002.3 |
| 20260509220051 | 56 | 193 | 2.6 | 13.9 | 0.05 | 0.05 | 0.05 | 83 | 1002.3 |
| 20260509214605 | 56 | 202 | 1.7 | 15.6 | 0.05 | 0.05 | 0.05 | 80 | 1002.1 |
| 20260509213050 | 59 | 217 | 1.7 | 9.6 | 0.02 | 0.02 | 0.02 | 74 | 1002.7 |
| 20260509211549 | 61 | 205 | 1.7 | 13.9 | 0.00 | 0.00 | 0.00 | 65 | 1002.5 |
| 20260509210052 | 62 | 184 | 3.5 | 20.9 | 0.00 | 0.00 | 0.00 | 59 | 1002.6 |
| 20260509204548 | 62 | 183 | 2.6 | 21.7 | 0.00 | 0.00 | 0.00 | 56 | 1002.2 |
| 20260509203058 | 62 | 205 | 2.6 | 12.2 | 0.00 | 0.00 | 0.00 | 57 | 1001.8 |
| 20260509201545 | 62 | 211 | 1.7 | 10.4 | 0.00 | 0.00 | 0.00 | 59 | 1002.0 |
| 20260509200044 | 62 | 182 | 4.3 | 11.3 | 0.00 | 0.00 | 0.00 | 62 | 1002.2 |
| 20260509194547 | 61 | 173 | 3.5 | 12.2 | 0.00 | 0.00 | 0.00 | 67 | 1002.5 |
| 20260509193041 | 61 | 184 | 4.3 | 13.0 | 0.00 | 0.00 | 0.00 | 66 | 1002.7 |
| 20260509191554 | 62 | 173 | 1.7 | 13.0 | 0.00 | 0.00 | 0.00 | 66 | 1002.8 |
| 20260509190041 | 62 | 162 | 3.5 | 15.6 | 0.00 | 0.00 | 0.00 | 66 | 1002.9 |
| 20260509184548 | 64 | 180 | 4.3 | 11.3 | 0.00 | 0.00 | 0.00 | 62 | 1003.0 |
| 20260509183048 | 63 | 146 | 2.6 | 15.6 | 0.00 | 0.00 | 0.00 | 65 | 1003.1 |
| 20260509181536 | 63 | 168 | 4.3 | 13.9 | 0.00 | 0.00 | 0.00 | 65 | 1003.0 |
| 20260509180035 | 64 | 162 | 3.5 | 15.6 | 0.00 | 0.00 | 0.00 | 63 | 1003.3 |
| 20260509174533 | 64 | 164 | 6.1 | 12.2 | 0.00 | 0.00 | 0.00 | 62 | 1003.4 |
| 20260509173033 | 62 | 131 | 4.3 | 13.9 | 0.00 | 0.00 | 0.00 | 66 | 1003.7 |
| 20260509171529 | 63 | 148 | 4.3 | 10.4 | 0.00 | 0.00 | 0.00 | 64 | 1004.1 |
| 20260509170025 | 63 | 125 | 1.7 | 10.4 | 0.00 | 0.00 | 0.00 | 66 | 1004.5 |
| 20260509164523 | 63 | 190 | 2.6 | 10.4 | 0.00 | 0.00 | 0.00 | 60 | 1004.8 |
| 20260509163031 | 62 | 171 | 2.6 | 10.4 | 0.00 | 0.00 | 0.00 | 67 | 1004.8 |
| 20260509161516 | 61 | 170 | 1.7 | 10.4 | 0.00 | 0.00 | 0.00 | 68 | 1004.9 |
| 20260509160016 | 61 | 190 | 2.6 | 8.7 | 0.00 | 0.00 | 0.00 | 70 | 1005.2 |
| 20260509154510 | 59 | 199 | 1.7 | 8.7 | 0.00 | 0.00 | 0.00 | 75 | 1005.6 |
| 20260509153008 | 57 | 173 | 1.7 | 8.7 | 0.00 | 0.00 | 0.00 | 77 | 1005.9 |
| 20260509151503 | 56 | 247 | 1.7 | 7.0 | 0.00 | 0.00 | 0.00 | 77 | 1006.1 |
| 20260509150103 | 55 | 178 | 1.7 | 7.0 | 0.00 | 0.00 | 0.00 | 79 | 1006.2 |
| 20260509144600 | 54 | 180 | 0.9 | 7.0 | 0.00 | 0.00 | 0.00 | 79 | 1006.1 |
| 20260509143054 | 54 | 200 | 2.6 | 10.4 | 0.00 | 0.00 | 0.00 | 80 | 1006.0 |
| 20260509141551 | 53 | 197 | 1.7 | 7.0 | 0.00 | 0.00 | 0.00 | 79 | 1006.4 |
| 20260509140051 | 53 | 211 | 1.7 | 6.1 | 0.00 | 0.00 | 0.00 | 78 | 1006.5 |
| 20260509134547 | 52 | 176 | 1.7 | 7.8 | 0.00 | 0.00 | 0.00 | 80 | 1006.6 |
| 20260509133043 | 50 | 136 | 0.9 | 5.2 | 0.00 | 0.00 | 0.00 | 80 | 1006.7 |
| 20260509131538 | 49 | 118 | 0.9 | 5.2 | 0.00 | 0.00 | 0.00 | 79 | 1006.7 |
| 20260509130041 | 49 | 148 | 0.9 | 6.1 | 0.00 | 0.01 | 0.00 | 77 | 1007.0 |
| 20260509124542 | 49 | 166 | 2.6 | 6.1 | 0.00 | 0.01 | 0.00 | 77 | 1007.0 |
| 20260509123035 | 48 | 142 | 2.6 | 7.0 | 0.00 | 0.01 | 0.00 | 77 | 1007.1 |
| 20260509121532 | 47 | 175 | 1.7 | 5.2 | 0.00 | 0.01 | 0.00 | 78 | 1007.1 |
| 20260509120026 | 46 | 157 | 0.9 | 4.3 | 0.00 | 0.01 | 0.00 | 78 | 1007.1 |
| 20260509114524 | 44 | 138 | 0.9 | 5.2 | 0.00 | 0.01 | 0.00 | 83 | 1006.9 |
| 20260509113024 | 42 | 108 | 0.0 | 2.6 | 0.00 | 0.01 | 0.00 | 88 | 1007.1 |
| 20260509111518 | 40 | 188 | 0.9 | 2.6 | 0.00 | 0.01 | 0.00 | 89 | 1007.0 |
| 20260509110014 | 39 | 202 | 0.0 | 0.0 | 0.00 | 0.01 | 0.00 | 88 | 1007.0 |
| 20260509104511 | 38 | 202 | 0.0 | 0.0 | 0.00 | 0.01 | 0.00 | 88 | 1007.1 |
| 20260509103009 | 38 | 202 | 0.0 | 0.0 | 0.00 | 0.01 | 0.00 | 88 | 1007.2 |
| 20260509101510 | 38 | 202 | 0.0 | 1.7 | 0.00 | 0.01 | 0.00 | 88 | 1007.3 |
| 20260509100005 | 38 | 187 | 0.0 | 0.9 | 0.00 | 0.01 | 0.00 | 88 | 1007.3 |